<?xml version="1.0" encoding="UTF-8" standalone="no" ?>
<gpx xmlns="http://www.topografix.com/GPX/1/1" xmlns:xsi="http://www.w3.org/2001/XMLSchema-instance" xsi:schemaLocation="http://www.topografix.com/GPX/1/1 http://www.topografix.com/GPX/1/1/gpx.xsd" version="1.1" creator="VisuGPX - https://www.visugpx.com">
  <metadata>
    <name>11507042-Volzac-Alleuze</name>
    <desc><![CDATA[A l'initiative de Leslie et Eva Sortie du 05/07/2020]]></desc>
  </metadata>
  <trk>
    <name><![CDATA[11507042-Volzac-Alleuze]]></name>
    <trkseg>
      <trkpt lat="45.02603" lon="3.07269">
        <ele>885</ele>
        <time>2020-06-18T12:03:38Z</time>
      </trkpt>
      <trkpt lat="45.02528" lon="3.07198">
        <ele>891</ele>
        <time>2020-06-18T12:04:50Z</time>
      </trkpt>
      <trkpt lat="45.02401" lon="3.07086">
        <ele>893</ele>
        <time>2020-06-18T12:06:50Z</time>
      </trkpt>
      <trkpt lat="45.02353" lon="3.07074">
        <ele>894</ele>
        <time>2020-06-18T12:07:29Z</time>
      </trkpt>
      <trkpt lat="45.02285" lon="3.07053">
        <ele>899</ele>
        <time>2020-06-18T12:08:25Z</time>
      </trkpt>
      <trkpt lat="45.02229" lon="3.06989">
        <ele>905</ele>
        <time>2020-06-18T12:09:22Z</time>
      </trkpt>
      <trkpt lat="45.0213" lon="3.06795">
        <ele>916</ele>
        <time>2020-06-18T12:11:38Z</time>
      </trkpt>
      <trkpt lat="45.02109" lon="3.06725">
        <ele>918</ele>
        <time>2020-06-18T12:12:21Z</time>
      </trkpt>
      <trkpt lat="45.02062" lon="3.06616">
        <ele>920</ele>
        <time>2020-06-18T12:13:33Z</time>
      </trkpt>
      <trkpt lat="45.01912" lon="3.06331">
        <ele>932</ele>
        <time>2020-06-18T12:16:54Z</time>
      </trkpt>
      <trkpt lat="45.01746" lon="3.05976">
        <ele>935</ele>
        <time>2020-06-18T12:20:55Z</time>
      </trkpt>
      <trkpt lat="45.01613" lon="3.05621">
        <ele>933</ele>
        <time>2020-06-18T12:24:43Z</time>
      </trkpt>
      <trkpt lat="45.01472" lon="3.05439">
        <ele>916</ele>
        <time>2020-06-18T12:27:15Z</time>
      </trkpt>
      <trkpt lat="45.0141" lon="3.05369">
        <ele>907</ele>
        <time>2020-06-18T12:28:19Z</time>
      </trkpt>
      <trkpt lat="45.01345" lon="3.05296">
        <ele>903</ele>
        <time>2020-06-18T12:29:25Z</time>
      </trkpt>
      <trkpt lat="45.01257" lon="3.05172">
        <ele>901</ele>
        <time>2020-06-18T12:31:05Z</time>
      </trkpt>
      <trkpt lat="45.01214" lon="3.05193">
        <ele>905</ele>
        <time>2020-06-18T12:31:41Z</time>
      </trkpt>
      <trkpt lat="45.01206" lon="3.05129">
        <ele>907</ele>
        <time>2020-06-18T12:32:18Z</time>
      </trkpt>
      <trkpt lat="45.01156" lon="3.05096">
        <ele>915</ele>
        <time>2020-06-18T12:33:02Z</time>
      </trkpt>
      <trkpt lat="45.01019" lon="3.04996">
        <ele>926</ele>
        <time>2020-06-18T12:35:06Z</time>
      </trkpt>
      <trkpt lat="45.00863" lon="3.04959">
        <ele>933</ele>
        <time>2020-06-18T12:37:12Z</time>
      </trkpt>
      <trkpt lat="45.00764" lon="3.04974">
        <ele>934</ele>
        <time>2020-06-18T12:38:32Z</time>
      </trkpt>
      <trkpt lat="45.00339" lon="3.04953">
        <ele>946</ele>
        <time>2020-06-18T12:44:13Z</time>
      </trkpt>
      <trkpt lat="45.0024" lon="3.04832">
        <ele>950</ele>
        <time>2020-06-18T12:45:57Z</time>
      </trkpt>
      <trkpt lat="45.00161" lon="3.04774">
        <ele>950</ele>
        <time>2020-06-18T12:47:09Z</time>
      </trkpt>
      <trkpt lat="45.00058" lon="3.04552">
        <ele>940</ele>
        <time>2020-06-18T12:49:39Z</time>
      </trkpt>
      <trkpt lat="44.99942" lon="3.04364">
        <ele>947</ele>
        <time>2020-06-18T12:52:00Z</time>
      </trkpt>
      <trkpt lat="44.998" lon="3.0417">
        <ele>958</ele>
        <time>2020-06-18T12:54:38Z</time>
      </trkpt>
      <trkpt lat="44.99706" lon="3.04088">
        <ele>959</ele>
        <time>2020-06-18T12:56:07Z</time>
      </trkpt>
      <trkpt lat="44.99457" lon="3.03858">
        <ele>970</ele>
        <time>2020-06-18T13:00:05Z</time>
      </trkpt>
      <trkpt lat="44.99412" lon="3.04">
        <ele>972</ele>
        <time>2020-06-18T13:01:33Z</time>
      </trkpt>
      <trkpt lat="44.99378" lon="3.04161">
        <ele>969</ele>
        <time>2020-06-18T13:03:08Z</time>
      </trkpt>
      <trkpt lat="44.99197" lon="3.04188">
        <ele>973</ele>
        <time>2020-06-18T13:05:34Z</time>
      </trkpt>
      <trkpt lat="44.99101" lon="3.04146">
        <ele>978</ele>
        <time>2020-06-18T13:06:54Z</time>
      </trkpt>
      <trkpt lat="44.99024" lon="3.04094">
        <ele>985</ele>
        <time>2020-06-18T13:08:03Z</time>
      </trkpt>
      <trkpt lat="44.99088" lon="3.03958">
        <ele>985</ele>
        <time>2020-06-18T13:09:35Z</time>
      </trkpt>
      <trkpt lat="44.99088" lon="3.03803">
        <ele>977</ele>
        <time>2020-06-18T13:11:03Z</time>
      </trkpt>
      <trkpt lat="44.99069" lon="3.03615">
        <ele>961</ele>
        <time>2020-06-18T13:12:50Z</time>
      </trkpt>
      <trkpt lat="44.99011" lon="3.03506">
        <ele>954</ele>
        <time>2020-06-18T13:14:08Z</time>
      </trkpt>
      <trkpt lat="44.98944" lon="3.03472">
        <ele>945</ele>
        <time>2020-06-18T13:15:05Z</time>
      </trkpt>
      <trkpt lat="44.98884" lon="3.03451">
        <ele>934</ele>
        <time>2020-06-18T13:15:54Z</time>
      </trkpt>
      <trkpt lat="44.98809" lon="3.03606">
        <ele>932</ele>
        <time>2020-06-18T13:17:40Z</time>
      </trkpt>
      <trkpt lat="44.98691" lon="3.03727">
        <ele>925</ele>
        <time>2020-06-18T13:19:37Z</time>
      </trkpt>
      <trkpt lat="44.98639" lon="3.03851">
        <ele>921</ele>
        <time>2020-06-18T13:20:59Z</time>
      </trkpt>
      <trkpt lat="44.98624" lon="3.03961">
        <ele>921</ele>
        <time>2020-06-18T13:22:02Z</time>
      </trkpt>
      <trkpt lat="44.98564" lon="3.04073">
        <ele>910</ele>
        <time>2020-06-18T13:23:22Z</time>
      </trkpt>
      <trkpt lat="44.98541" lon="3.0421">
        <ele>904</ele>
        <time>2020-06-18T13:24:42Z</time>
      </trkpt>
      <trkpt lat="44.98498" lon="3.04401">
        <ele>901</ele>
        <time>2020-06-18T13:26:35Z</time>
      </trkpt>
      <trkpt lat="44.98485" lon="3.04504">
        <ele>902</ele>
        <time>2020-06-18T13:27:34Z</time>
      </trkpt>
      <trkpt lat="44.98463" lon="3.04525">
        <ele>905</ele>
        <time>2020-06-18T13:27:56Z</time>
      </trkpt>
      <trkpt lat="44.98384" lon="3.04516">
        <ele>907</ele>
        <time>2020-06-18T13:28:59Z</time>
      </trkpt>
      <trkpt lat="44.98324" lon="3.0454">
        <ele>908</ele>
        <time>2020-06-18T13:29:49Z</time>
      </trkpt>
      <trkpt lat="44.9824" lon="3.04647">
        <ele>909</ele>
        <time>2020-06-18T13:31:20Z</time>
      </trkpt>
      <trkpt lat="44.98292" lon="3.04783">
        <ele>906</ele>
        <time>2020-06-18T13:32:47Z</time>
      </trkpt>
      <trkpt lat="44.98285" lon="3.04859">
        <ele>905</ele>
        <time>2020-06-18T13:33:30Z</time>
      </trkpt>
      <trkpt lat="44.98249" lon="3.04983">
        <ele>913</ele>
        <time>2020-06-18T13:34:46Z</time>
      </trkpt>
      <trkpt lat="44.98236" lon="3.05111">
        <ele>919</ele>
        <time>2020-06-18T13:36:00Z</time>
      </trkpt>
      <trkpt lat="44.98225" lon="3.05478">
        <ele>923</ele>
        <time>2020-06-18T13:39:28Z</time>
      </trkpt>
      <trkpt lat="44.983" lon="3.05426">
        <ele>928</ele>
        <time>2020-06-18T13:40:35Z</time>
      </trkpt>
      <trkpt lat="44.98425" lon="3.05417">
        <ele>931</ele>
        <time>2020-06-18T13:42:15Z</time>
      </trkpt>
      <trkpt lat="44.98496" lon="3.05484">
        <ele>922</ele>
        <time>2020-06-18T13:43:23Z</time>
      </trkpt>
      <trkpt lat="44.98556" lon="3.05521">
        <ele>922</ele>
        <time>2020-06-18T13:44:15Z</time>
      </trkpt>
      <trkpt lat="44.98573" lon="3.05596">
        <ele>923</ele>
        <time>2020-06-18T13:45:00Z</time>
      </trkpt>
      <trkpt lat="44.98592" lon="3.05684">
        <ele>929</ele>
        <time>2020-06-18T13:45:52Z</time>
      </trkpt>
      <trkpt lat="44.98646" lon="3.05748">
        <ele>933</ele>
        <time>2020-06-18T13:46:49Z</time>
      </trkpt>
      <trkpt lat="44.98772" lon="3.05951">
        <ele>939</ele>
        <time>2020-06-18T13:49:22Z</time>
      </trkpt>
      <trkpt lat="44.98899" lon="3.06212">
        <ele>944</ele>
        <time>2020-06-18T13:52:21Z</time>
      </trkpt>
      <trkpt lat="44.98963" lon="3.06225">
        <ele>944</ele>
        <time>2020-06-18T13:53:13Z</time>
      </trkpt>
      <trkpt lat="44.98779" lon="3.06486">
        <ele>959</ele>
        <time>2020-06-18T13:56:41Z</time>
      </trkpt>
      <trkpt lat="44.98757" lon="3.06646">
        <ele>971</ele>
        <time>2020-06-18T13:58:14Z</time>
      </trkpt>
      <trkpt lat="44.98727" lon="3.06783">
        <ele>983</ele>
        <time>2020-06-18T13:59:35Z</time>
      </trkpt>
      <trkpt lat="44.98689" lon="3.06759">
        <ele>985</ele>
        <time>2020-06-18T14:00:08Z</time>
      </trkpt>
      <trkpt lat="44.98547" lon="3.06792">
        <ele>987</ele>
        <time>2020-06-18T14:02:03Z</time>
      </trkpt>
      <trkpt lat="44.98412" lon="3.06737">
        <ele>983</ele>
        <time>2020-06-18T14:03:56Z</time>
      </trkpt>
      <trkpt lat="44.98347" lon="3.06595">
        <ele>966</ele>
        <time>2020-06-18T14:05:32Z</time>
      </trkpt>
      <trkpt lat="44.98365" lon="3.06501">
        <ele>960</ele>
        <time>2020-06-18T14:06:27Z</time>
      </trkpt>
      <trkpt lat="44.98292" lon="3.06552">
        <ele>958</ele>
        <time>2020-06-18T14:07:32Z</time>
      </trkpt>
      <trkpt lat="44.98259" lon="3.06634">
        <ele>958</ele>
        <time>2020-06-18T14:08:26Z</time>
      </trkpt>
      <trkpt lat="44.98247" lon="3.06695">
        <ele>960</ele>
        <time>2020-06-18T14:09:01Z</time>
      </trkpt>
      <trkpt lat="44.98187" lon="3.0664">
        <ele>948</ele>
        <time>2020-06-18T14:09:59Z</time>
      </trkpt>
      <trkpt lat="44.98154" lon="3.06789">
        <ele>942</ele>
        <time>2020-06-18T14:11:27Z</time>
      </trkpt>
      <trkpt lat="44.98131" lon="3.06962">
        <ele>940</ele>
        <time>2020-06-18T14:13:07Z</time>
      </trkpt>
      <trkpt lat="44.98099" lon="3.07017">
        <ele>939</ele>
        <time>2020-06-18T14:13:47Z</time>
      </trkpt>
      <trkpt lat="44.98064" lon="3.07059">
        <ele>939</ele>
        <time>2020-06-18T14:14:24Z</time>
      </trkpt>
      <trkpt lat="44.98066" lon="3.07153">
        <ele>941</ele>
        <time>2020-06-18T14:15:17Z</time>
      </trkpt>
      <trkpt lat="44.97961" lon="3.07171">
        <ele>941</ele>
        <time>2020-06-18T14:16:42Z</time>
      </trkpt>
      <trkpt lat="44.97927" lon="3.07265">
        <ele>945</ele>
        <time>2020-06-18T14:17:42Z</time>
      </trkpt>
      <trkpt lat="44.97903" lon="3.0732">
        <ele>947</ele>
        <time>2020-06-18T14:18:18Z</time>
      </trkpt>
      <trkpt lat="44.97918" lon="3.07426">
        <ele>952</ele>
        <time>2020-06-18T14:19:19Z</time>
      </trkpt>
      <trkpt lat="44.97858" lon="3.07396">
        <ele>948</ele>
        <time>2020-06-18T14:20:10Z</time>
      </trkpt>
      <trkpt lat="44.97755" lon="3.07493">
        <ele>940</ele>
        <time>2020-06-18T14:21:49Z</time>
      </trkpt>
      <trkpt lat="44.97638" lon="3.07549">
        <ele>931</ele>
        <time>2020-06-18T14:23:28Z</time>
      </trkpt>
      <trkpt lat="44.97557" lon="3.07516">
        <ele>929</ele>
        <time>2020-06-18T14:24:36Z</time>
      </trkpt>
      <trkpt lat="44.97501" lon="3.07539">
        <ele>932</ele>
        <time>2020-06-18T14:25:23Z</time>
      </trkpt>
      <trkpt lat="44.97432" lon="3.07585">
        <ele>940</ele>
        <time>2020-06-18T14:26:24Z</time>
      </trkpt>
      <trkpt lat="44.97279" lon="3.07671">
        <ele>948</ele>
        <time>2020-06-18T14:28:35Z</time>
      </trkpt>
      <trkpt lat="44.97248" lon="3.0773">
        <ele>951</ele>
        <time>2020-06-18T14:29:17Z</time>
      </trkpt>
      <trkpt lat="44.97149" lon="3.07671">
        <ele>947</ele>
        <time>2020-06-18T14:30:43Z</time>
      </trkpt>
      <trkpt lat="44.97111" lon="3.07648">
        <ele>942</ele>
        <time>2020-06-18T14:31:16Z</time>
      </trkpt>
      <trkpt lat="44.97062" lon="3.07676">
        <ele>937</ele>
        <time>2020-06-18T14:31:59Z</time>
      </trkpt>
      <trkpt lat="44.97022" lon="3.0772">
        <ele>933</ele>
        <time>2020-06-18T14:32:39Z</time>
      </trkpt>
      <trkpt lat="44.96997" lon="3.07804">
        <ele>933</ele>
        <time>2020-06-18T14:33:31Z</time>
      </trkpt>
      <trkpt lat="44.96959" lon="3.07878">
        <ele>932</ele>
        <time>2020-06-18T14:34:23Z</time>
      </trkpt>
      <trkpt lat="44.96907" lon="3.07914">
        <ele>929</ele>
        <time>2020-06-18T14:35:09Z</time>
      </trkpt>
      <trkpt lat="44.966" lon="3.07896">
        <ele>921</ele>
        <time>2020-06-18T14:39:15Z</time>
      </trkpt>
      <trkpt lat="44.96475" lon="3.07916">
        <ele>922</ele>
        <time>2020-06-18T14:40:56Z</time>
      </trkpt>
      <trkpt lat="44.96345" lon="3.07932">
        <ele>920</ele>
        <time>2020-06-18T14:42:40Z</time>
      </trkpt>
      <trkpt lat="44.9623" lon="3.07903">
        <ele>903</ele>
        <time>2020-06-18T14:44:14Z</time>
      </trkpt>
      <trkpt lat="44.96103" lon="3.07983">
        <ele>881</ele>
        <time>2020-06-18T14:46:05Z</time>
      </trkpt>
      <trkpt lat="44.96132" lon="3.08062">
        <ele>881</ele>
        <time>2020-06-18T14:46:55Z</time>
      </trkpt>
      <trkpt lat="44.96174" lon="3.08138">
        <ele>884</ele>
        <time>2020-06-18T14:47:50Z</time>
      </trkpt>
      <trkpt lat="44.9625" lon="3.08235">
        <ele>888</ele>
        <time>2020-06-18T14:49:12Z</time>
      </trkpt>
      <trkpt lat="44.96241" lon="3.08284">
        <ele>884</ele>
        <time>2020-06-18T14:49:41Z</time>
      </trkpt>
      <trkpt lat="44.96197" lon="3.08416">
        <ele>881</ele>
        <time>2020-06-18T14:51:03Z</time>
      </trkpt>
      <trkpt lat="44.96181" lon="3.08531">
        <ele>879</ele>
        <time>2020-06-18T14:52:10Z</time>
      </trkpt>
      <trkpt lat="44.96304" lon="3.0861">
        <ele>879</ele>
        <time>2020-06-18T14:53:58Z</time>
      </trkpt>
      <trkpt lat="44.96363" lon="3.08626">
        <ele>880</ele>
        <time>2020-06-18T14:54:46Z</time>
      </trkpt>
      <trkpt lat="44.96277" lon="3.0874">
        <ele>874</ele>
        <time>2020-06-18T14:56:20Z</time>
      </trkpt>
      <trkpt lat="44.96248" lon="3.08791">
        <ele>876</ele>
        <time>2020-06-18T14:56:58Z</time>
      </trkpt>
      <trkpt lat="44.96166" lon="3.08814">
        <ele>868</ele>
        <time>2020-06-18T14:58:04Z</time>
      </trkpt>
      <trkpt lat="44.96127" lon="3.09039">
        <ele>874</ele>
        <time>2020-06-18T15:00:16Z</time>
      </trkpt>
      <trkpt lat="44.96174" lon="3.091">
        <ele>890</ele>
        <time>2020-06-18T15:01:07Z</time>
      </trkpt>
      <trkpt lat="44.96194" lon="3.09034">
        <ele>895</ele>
        <time>2020-06-18T15:01:48Z</time>
      </trkpt>
      <trkpt lat="44.96255" lon="3.09024">
        <ele>907</ele>
        <time>2020-06-18T15:02:37Z</time>
      </trkpt>
      <trkpt lat="44.96313" lon="3.09136">
        <ele>917</ele>
        <time>2020-06-18T15:03:55Z</time>
      </trkpt>
      <trkpt lat="44.96313" lon="3.09315">
        <ele>927</ele>
        <time>2020-06-18T15:05:37Z</time>
      </trkpt>
      <trkpt lat="44.96396" lon="3.0958">
        <ele>936</ele>
        <time>2020-06-18T15:08:21Z</time>
      </trkpt>
      <trkpt lat="44.96472" lon="3.09748">
        <ele>929</ele>
        <time>2020-06-18T15:10:14Z</time>
      </trkpt>
      <trkpt lat="44.96531" lon="3.09919">
        <ele>932</ele>
        <time>2020-06-18T15:12:02Z</time>
      </trkpt>
      <trkpt lat="44.96584" lon="3.10037">
        <ele>934</ele>
        <time>2020-06-18T15:13:21Z</time>
      </trkpt>
      <trkpt lat="44.96611" lon="3.10231">
        <ele>932</ele>
        <time>2020-06-18T15:15:13Z</time>
      </trkpt>
      <trkpt lat="44.96506" lon="3.10386">
        <ele>922</ele>
        <time>2020-06-18T15:17:14Z</time>
      </trkpt>
      <trkpt lat="44.96403" lon="3.10442">
        <ele>920</ele>
        <time>2020-06-18T15:18:43Z</time>
      </trkpt>
      <trkpt lat="44.96246" lon="3.10557">
        <ele>912</ele>
        <time>2020-06-18T15:21:04Z</time>
      </trkpt>
      <trkpt lat="44.96147" lon="3.10619">
        <ele>901</ele>
        <time>2020-06-18T15:22:31Z</time>
      </trkpt>
      <trkpt lat="44.96094" lon="3.10664">
        <ele>903</ele>
        <time>2020-06-18T15:23:21Z</time>
      </trkpt>
      <trkpt lat="44.95982" lon="3.10746">
        <ele>907</ele>
        <time>2020-06-18T15:25:02Z</time>
      </trkpt>
      <trkpt lat="44.96064" lon="3.10805">
        <ele>915</ele>
        <time>2020-06-18T15:26:15Z</time>
      </trkpt>
      <trkpt lat="44.96172" lon="3.11019">
        <ele>929</ele>
        <time>2020-06-18T15:28:44Z</time>
      </trkpt>
      <trkpt lat="44.96242" lon="3.11116">
        <ele>932</ele>
        <time>2020-06-18T15:30:03Z</time>
      </trkpt>
      <trkpt lat="44.96378" lon="3.11167">
        <ele>938</ele>
        <time>2020-06-18T15:31:55Z</time>
      </trkpt>
      <trkpt lat="44.96463" lon="3.1118">
        <ele>938</ele>
        <time>2020-06-18T15:33:04Z</time>
      </trkpt>
      <trkpt lat="44.96605" lon="3.11121">
        <ele>930</ele>
        <time>2020-06-18T15:35:02Z</time>
      </trkpt>
      <trkpt lat="44.96703" lon="3.11032">
        <ele>926</ele>
        <time>2020-06-18T15:36:36Z</time>
      </trkpt>
      <trkpt lat="44.96575" lon="3.10721">
        <ele>942</ele>
        <time>2020-06-18T15:39:59Z</time>
      </trkpt>
      <trkpt lat="44.96712" lon="3.10713">
        <ele>948</ele>
        <time>2020-06-18T15:41:49Z</time>
      </trkpt>
      <trkpt lat="44.9684" lon="3.1071">
        <ele>957</ele>
        <time>2020-06-18T15:43:32Z</time>
      </trkpt>
      <trkpt lat="44.96968" lon="3.1056">
        <ele>965</ele>
        <time>2020-06-18T15:45:45Z</time>
      </trkpt>
      <trkpt lat="44.97113" lon="3.1034">
        <ele>974</ele>
        <time>2020-06-18T15:48:35Z</time>
      </trkpt>
      <trkpt lat="44.97237" lon="3.10167">
        <ele>972</ele>
        <time>2020-06-18T15:50:55Z</time>
      </trkpt>
      <trkpt lat="44.97235" lon="3.09965">
        <ele>972</ele>
        <time>2020-06-18T15:52:49Z</time>
      </trkpt>
      <trkpt lat="44.9738" lon="3.09919">
        <ele>975</ele>
        <time>2020-06-18T15:54:48Z</time>
      </trkpt>
      <trkpt lat="44.97493" lon="3.10004">
        <ele>981</ele>
        <time>2020-06-18T15:56:30Z</time>
      </trkpt>
      <trkpt lat="44.97649" lon="3.10055">
        <ele>982</ele>
        <time>2020-06-18T15:58:39Z</time>
      </trkpt>
      <trkpt lat="44.97575" lon="3.09876">
        <ele>990</ele>
        <time>2020-06-18T16:00:36Z</time>
      </trkpt>
      <trkpt lat="44.97374" lon="3.09455">
        <ele>993</ele>
        <time>2020-06-18T16:05:24Z</time>
      </trkpt>
      <trkpt lat="44.97598" lon="3.09248">
        <ele>990</ele>
        <time>2020-06-18T16:08:58Z</time>
      </trkpt>
      <trkpt lat="44.97896" lon="3.08654">
        <ele>988</ele>
        <time>2020-06-18T16:15:51Z</time>
      </trkpt>
      <trkpt lat="44.98125" lon="3.08373">
        <ele>991</ele>
        <time>2020-06-18T16:19:53Z</time>
      </trkpt>
      <trkpt lat="44.98309" lon="3.08215">
        <ele>996</ele>
        <time>2020-06-18T16:22:46Z</time>
      </trkpt>
      <trkpt lat="44.98331" lon="3.0809">
        <ele>997</ele>
        <time>2020-06-18T16:23:59Z</time>
      </trkpt>
      <trkpt lat="44.98428" lon="3.07807">
        <ele>1000</ele>
        <time>2020-06-18T16:26:57Z</time>
      </trkpt>
      <trkpt lat="44.98479" lon="3.07531">
        <ele>1002</ele>
        <time>2020-06-18T16:29:38Z</time>
      </trkpt>
      <trkpt lat="44.98576" lon="3.0725">
        <ele>999</ele>
        <time>2020-06-18T16:32:35Z</time>
      </trkpt>
      <trkpt lat="44.98638" lon="3.0712">
        <ele>997</ele>
        <time>2020-06-18T16:34:04Z</time>
      </trkpt>
      <trkpt lat="44.9869" lon="3.06952">
        <ele>992</ele>
        <time>2020-06-18T16:35:48Z</time>
      </trkpt>
      <trkpt lat="44.98737" lon="3.06827">
        <ele>985</ele>
        <time>2020-06-18T16:37:08Z</time>
      </trkpt>
      <trkpt lat="44.98771" lon="3.06513">
        <ele>960</ele>
        <time>2020-06-18T16:40:08Z</time>
      </trkpt>
      <trkpt lat="44.98982" lon="3.06168">
        <ele>946</ele>
        <time>2020-06-18T16:44:26Z</time>
      </trkpt>
      <trkpt lat="44.99037" lon="3.06059">
        <ele>944</ele>
        <time>2020-06-18T16:45:42Z</time>
      </trkpt>
      <trkpt lat="44.99199" lon="3.05844">
        <ele>946</ele>
        <time>2020-06-18T16:48:40Z</time>
      </trkpt>
      <trkpt lat="44.99204" lon="3.05671">
        <ele>949</ele>
        <time>2020-06-18T16:50:18Z</time>
      </trkpt>
      <trkpt lat="44.99257" lon="3.0527">
        <ele>950</ele>
        <time>2020-06-18T16:54:09Z</time>
      </trkpt>
      <trkpt lat="44.99307" lon="3.04964">
        <ele>954</ele>
        <time>2020-06-18T16:57:07Z</time>
      </trkpt>
      <trkpt lat="44.99524" lon="3.04943">
        <ele>953</ele>
        <time>2020-06-18T17:00:01Z</time>
      </trkpt>
      <trkpt lat="44.99693" lon="3.04969">
        <ele>949</ele>
        <time>2020-06-18T17:02:17Z</time>
      </trkpt>
      <trkpt lat="44.99787" lon="3.04961">
        <ele>938</ele>
        <time>2020-06-18T17:03:33Z</time>
      </trkpt>
      <trkpt lat="44.99825" lon="3.05015">
        <ele>936</ele>
        <time>2020-06-18T17:04:16Z</time>
      </trkpt>
      <trkpt lat="44.99814" lon="3.05252">
        <ele>931</ele>
        <time>2020-06-18T17:06:30Z</time>
      </trkpt>
      <trkpt lat="44.99836" lon="3.05561">
        <ele>933</ele>
        <time>2020-06-18T17:09:26Z</time>
      </trkpt>
      <trkpt lat="44.99885" lon="3.05722">
        <ele>933</ele>
        <time>2020-06-18T17:11:05Z</time>
      </trkpt>
      <trkpt lat="44.99971" lon="3.05763">
        <ele>937</ele>
        <time>2020-06-18T17:12:18Z</time>
      </trkpt>
      <trkpt lat="44.99961" lon="3.05847">
        <ele>931</ele>
        <time>2020-06-18T17:13:06Z</time>
      </trkpt>
      <trkpt lat="44.99959" lon="3.05944">
        <ele>931</ele>
        <time>2020-06-18T17:14:01Z</time>
      </trkpt>
      <trkpt lat="44.99961" lon="3.06145">
        <ele>931</ele>
        <time>2020-06-18T17:15:55Z</time>
      </trkpt>
      <trkpt lat="45.00029" lon="3.06115">
        <ele>940</ele>
        <time>2020-06-18T17:16:52Z</time>
      </trkpt>
      <trkpt lat="45.00141" lon="3.06015">
        <ele>949</ele>
        <time>2020-06-18T17:18:38Z</time>
      </trkpt>
      <trkpt lat="45.00211" lon="3.0578">
        <ele>956</ele>
        <time>2020-06-18T17:21:02Z</time>
      </trkpt>
      <trkpt lat="45.00459" lon="3.05492">
        <ele>936</ele>
        <time>2020-06-18T17:25:19Z</time>
      </trkpt>
      <trkpt lat="45.00587" lon="3.05349">
        <ele>929</ele>
        <time>2020-06-18T17:27:30Z</time>
      </trkpt>
      <trkpt lat="45.00731" lon="3.05262">
        <ele>925</ele>
        <time>2020-06-18T17:29:35Z</time>
      </trkpt>
      <trkpt lat="45.00931" lon="3.05216">
        <ele>921</ele>
        <time>2020-06-18T17:32:18Z</time>
      </trkpt>
      <trkpt lat="45.01104" lon="3.05232">
        <ele>915</ele>
        <time>2020-06-18T17:34:36Z</time>
      </trkpt>
      <trkpt lat="45.01184" lon="3.05183">
        <ele>908</ele>
        <time>2020-06-18T17:35:46Z</time>
      </trkpt>
      <trkpt lat="45.01274" lon="3.05204">
        <ele>902</ele>
        <time>2020-06-18T17:36:59Z</time>
      </trkpt>
      <trkpt lat="45.0138" lon="3.05334">
        <ele>904</ele>
        <time>2020-06-18T17:38:52Z</time>
      </trkpt>
      <trkpt lat="45.01523" lon="3.05538">
        <ele>925</ele>
        <time>2020-06-18T17:41:34Z</time>
      </trkpt>
      <trkpt lat="45.01839" lon="3.06232">
        <ele>937</ele>
        <time>2020-06-18T17:49:21Z</time>
      </trkpt>
      <trkpt lat="45.02217" lon="3.06975">
        <ele>905</ele>
        <time>2020-06-18T17:57:59Z</time>
      </trkpt>
      <trkpt lat="45.02604" lon="3.07236">
        <ele>888</ele>
        <time>2020-06-18T18:03:43Z</time>
      </trkpt>
      <trkpt lat="45.02604" lon="3.07236">
        <ele>888</ele>
        <time>2020-06-18T18:03:43Z</time>
      </trkpt>
    </trkseg>
  </trk>
</gpx>